Terminal Aerodrome Forecast
Issued by NWS

Home | Current Version | Previous Version | Text Only | Print | Product List | Glossary On
Versions: 1 2 3 4 5 6 7 8 9 10 11 12 13 14 15 16 17
000
FTUS43 KPAH 211916 AAA
TAFOWB
TAF AMD
KOWB 211916Z 2119/2218 36009KT P6SM -RA OVC007
     FM212300 02011KT 6SM -RA BR OVC007
     FM220300 04013G19KT 4SM -RA BR OVC006
     FM220900 03010KT 4SM BR OVC005
     FM221600 07005KT P6SM OVC008=

USA.gov is the U.S. government's official web portal to all federal, state and local government web resources and services.